createdAt,value
2018-12-26T00:02:14.541Z,16.90
2018-12-26T00:05:02.445Z,19.60
2018-12-26T00:07:50.788Z,18.80
2018-12-26T00:10:38.754Z,20.90
2018-12-26T00:13:26.681Z,21.75
2018-12-26T00:16:14.566Z,22.95
2018-12-26T00:19:02.454Z,21.33
2018-12-26T00:21:50.561Z,21.23
2018-12-26T00:24:38.951Z,16.77
2018-12-26T00:27:27.100Z,19.42
2018-12-26T00:30:07.873Z,16.52
2018-12-26T00:32:48.289Z,18.73
2018-12-26T00:35:29.045Z,16.50
2018-12-26T00:40:58.241Z,18.42
2018-12-26T00:46:23.088Z,16.87
2018-12-26T00:51:52.357Z,17.90
2018-12-26T00:54:33.766Z,16.77
2018-12-26T00:57:15.794Z,15.53
2018-12-26T00:59:56.864Z,17.32
2018-12-26T01:02:38.171Z,17.73
2018-12-26T01:05:19.089Z,16.37
2018-12-26T01:08:00.149Z,15.38
2018-12-26T01:10:40.669Z,14.87
2018-12-26T01:13:21.685Z,15.65
2018-12-26T01:21:49.933Z,19.02
2018-12-26T01:30:12.231Z,19.92
2018-12-26T01:32:53.361Z,21.15
2018-12-26T01:35:34.442Z,17.02
2018-12-26T01:41:04.092Z,20.40
2018-12-26T01:43:44.753Z,18.60
2018-12-26T01:49:16.173Z,19.73
2018-12-26T01:51:56.465Z,21.48
2018-12-26T01:54:37.097Z,15.38
2018-12-26T01:57:17.617Z,18.20
2018-12-26T01:59:58.464Z,17.77
2018-12-26T02:02:39.102Z,18.60
2018-12-26T02:05:19.641Z,18.27
2018-12-26T02:08:00.429Z,19.37
2018-12-26T02:10:41.009Z,18.65
2018-12-26T02:13:22.005Z,19.15
2018-12-26T02:16:02.366Z,18.27
2018-12-26T02:18:43.490Z,15.18
2018-12-26T02:21:24.378Z,17.55
2018-12-26T02:24:04.930Z,15.43
2018-12-26T02:26:45.833Z,16.40
2018-12-26T02:29:26.377Z,18.40
2018-12-26T02:32:07.044Z,19.05
2018-12-26T02:34:47.360Z,15.25
2018-12-26T02:37:28.051Z,21.40
2018-12-26T02:40:08.674Z,17.02
2018-12-26T02:42:50.206Z,15.45
2018-12-26T02:45:30.893Z,20.52
2018-12-26T02:48:11.962Z,19.27
2018-12-26T02:50:52.474Z,19.20
2018-12-26T02:53:33.101Z,15.90
2018-12-26T02:56:13.970Z,15.38
2018-12-26T02:58:55.050Z,16.95
2018-12-26T03:01:35.758Z,17.32
2018-12-26T03:04:16.319Z,14.80
2018-12-26T03:06:57.378Z,17.27
2018-12-26T03:09:38.133Z,15.50
2018-12-26T03:12:18.939Z,15.80
2018-12-26T03:14:59.274Z,18.02
2018-12-26T03:17:39.928Z,16.87
2018-12-26T03:20:20.501Z,16.20
2018-12-26T03:23:01.365Z,15.38
2018-12-26T03:25:42.733Z,14.80
2018-12-26T03:28:23.436Z,15.98
2018-12-26T03:31:04.230Z,15.88
2018-12-26T03:33:45.360Z,14.68
2018-12-26T03:36:26.593Z,16.60
2018-12-26T03:39:07.017Z,14.20
2018-12-26T03:41:48.033Z,15.13
2018-12-26T03:44:28.725Z,16.40
2018-12-26T03:47:09.833Z,16.37
2018-12-26T03:49:50.897Z,16.32
2018-12-26T03:52:32.177Z,18.35
2018-12-26T03:55:12.631Z,17.73
2018-12-26T03:57:53.481Z,13.90
2018-12-26T04:00:34.317Z,18.92
2018-12-26T04:03:15.051Z,19.98
2018-12-26T04:05:55.910Z,21.17
2018-12-26T04:08:37.138Z,19.07
2018-12-26T04:11:17.888Z,29.00
2018-12-26T04:13:58.228Z,25.77
2018-12-26T04:16:39.166Z,29.15
2018-12-26T04:19:20.153Z,42.15
2018-12-26T04:22:01.015Z,38.55
2018-12-26T04:24:41.766Z,47.50
2018-12-26T04:27:22.318Z,48.80
2018-12-26T04:30:02.919Z,56.45
2018-12-26T04:32:42.078Z,46.00
2018-12-26T04:38:24.913Z,49.58
2018-12-26T04:41:13.057Z,72.87
2018-12-26T04:44:00.933Z,45.65
2018-12-26T04:49:42.547Z,59.27
2018-12-26T04:52:30.704Z,41.23
2018-12-26T04:55:18.597Z,41.53
2018-12-26T04:58:06.470Z,44.27
2018-12-26T05:00:54.362Z,42.85
2018-12-26T05:03:42.460Z,39.00
2018-12-26T05:06:30.585Z,39.85
2018-12-26T05:09:18.929Z,68.40
2018-12-26T05:12:06.813Z,54.88
2018-12-26T05:14:55.174Z,45.75
2018-12-26T05:17:43.273Z,48.55
2018-12-26T05:20:31.454Z,42.03
2018-12-26T05:23:19.560Z,37.08
2018-12-26T05:26:07.441Z,37.83
2018-12-26T05:28:48.018Z,31.68
2018-12-26T05:31:29.525Z,36.08
2018-12-26T05:34:10.029Z,39.90
2018-12-26T05:36:50.919Z,45.28
2018-12-26T05:42:21.681Z,44.60
2018-12-26T05:45:02.353Z,42.78
2018-12-26T05:47:43.374Z,37.95
2018-12-26T05:53:12.693Z,40.17
2018-12-26T05:58:41.401Z,41.92
2018-12-26T06:01:24.810Z,42.23
2018-12-26T06:04:05.361Z,37.33
2018-12-26T06:06:46.455Z,43.80
2018-12-26T06:12:12.649Z,36.20
2018-12-26T06:17:42.762Z,37.05
2018-12-26T06:20:24.389Z,38.45
2018-12-26T06:23:05.501Z,33.02
2018-12-26T06:28:31.250Z,38.02
2018-12-26T06:34:02.721Z,40.40
2018-12-26T06:39:35.556Z,34.15
2018-12-26T06:42:17.127Z,47.05
2018-12-26T06:47:47.178Z,34.75
2018-12-26T06:53:17.930Z,45.85
2018-12-26T06:55:58.942Z,38.40
2018-12-26T06:58:42.365Z,40.15
2018-12-26T07:01:23.490Z,42.48
2018-12-26T07:04:04.165Z,40.85
2018-12-26T07:09:33.658Z,41.60
2018-12-26T07:15:04.471Z,44.15
2018-12-26T07:17:46.054Z,43.25
2018-12-26T07:23:12.110Z,36.77
2018-12-26T07:28:41.991Z,44.15
2018-12-26T07:34:08.354Z,44.15
2018-12-26T07:39:33.406Z,41.90
2018-12-26T07:44:58.421Z,39.30
2018-12-26T07:50:23.569Z,44.83
2018-12-26T07:53:04.121Z,44.05
2018-12-26T07:55:44.839Z,39.25
2018-12-26T07:58:26.334Z,42.30
2018-12-26T08:01:06.872Z,42.00
2018-12-26T08:06:31.501Z,39.58
2018-12-26T08:09:12.561Z,39.48
2018-12-26T08:11:53.265Z,48.50
2018-12-26T08:14:34.053Z,42.15
2018-12-26T08:17:15.609Z,41.35
2018-12-26T08:19:56.193Z,41.50
2018-12-26T08:22:37.075Z,37.53
2018-12-26T08:25:17.705Z,35.83
2018-12-26T08:27:58.745Z,34.43
2018-12-26T08:30:39.874Z,40.15
2018-12-26T08:33:20.495Z,39.70
2018-12-26T08:38:57.765Z,39.27
2018-12-26T08:44:33.893Z,37.98
2018-12-26T08:53:02.829Z,36.20
2018-12-26T08:55:44.730Z,35.05
2018-12-26T09:01:10.474Z,35.85
2018-12-26T09:06:37.129Z,39.70
2018-12-26T09:12:02.018Z,37.20
2018-12-26T09:14:55.322Z,40.78
2018-12-26T09:17:43.469Z,36.53
2018-12-26T09:20:31.589Z,32.83
2018-12-26T09:23:19.702Z,34.25
2018-12-26T09:26:08.275Z,34.70
2018-12-26T09:28:56.179Z,34.15
2018-12-26T09:31:37.777Z,35.50
2018-12-26T09:34:18.169Z,34.78
2018-12-26T09:36:58.778Z,34.83
2018-12-26T09:39:39.909Z,32.78
2018-12-26T09:42:21.203Z,30.77
2018-12-26T09:45:01.554Z,31.05
2018-12-26T09:47:42.101Z,32.73
2018-12-26T09:50:23.197Z,31.77
2018-12-26T09:53:03.489Z,30.35
2018-12-26T09:55:44.097Z,34.40
2018-12-26T09:58:24.568Z,34.03
2018-12-26T10:01:05.394Z,28.50
2018-12-26T10:03:45.973Z,32.42
2018-12-26T10:06:26.910Z,34.53
2018-12-26T10:09:08.145Z,30.57
2018-12-26T10:11:49.226Z,34.35
2018-12-26T10:14:29.917Z,30.02
2018-12-26T10:17:10.969Z,30.40
2018-12-26T10:19:51.893Z,33.15
2018-12-26T10:22:32.244Z,34.95
2018-12-26T10:25:12.729Z,32.05
2018-12-26T10:27:53.713Z,32.85
2018-12-26T10:30:34.169Z,30.32
2018-12-26T10:33:14.721Z,25.05
2018-12-26T10:35:55.253Z,32.17
2018-12-26T10:38:36.522Z,26.68
2018-12-26T10:41:18.213Z,26.37
2018-12-26T10:43:58.738Z,27.07
2018-12-26T10:46:38.974Z,26.85
2018-12-26T10:49:19.465Z,24.92
2018-12-26T10:51:59.994Z,25.23
2018-12-26T10:54:41.305Z,31.42
2018-12-26T10:57:22.062Z,28.25
2018-12-26T11:00:02.797Z,28.12
2018-12-26T11:02:43.353Z,27.17
2018-12-26T11:05:29.460Z,23.22
2018-12-26T11:08:07.143Z,25.62
2018-12-26T11:10:47.782Z,20.70
2018-12-26T11:13:28.713Z,23.05
2018-12-26T11:16:09.933Z,21.93
2018-12-26T11:18:51.049Z,26.07
2018-12-26T11:21:31.689Z,21.87
2018-12-26T11:24:12.261Z,22.80
2018-12-26T11:26:53.538Z,26.97
2018-12-26T11:29:34.830Z,27.55
2018-12-26T11:32:16.310Z,23.65
2018-12-26T11:34:56.622Z,27.35
2018-12-26T11:37:36.934Z,28.65
2018-12-26T11:40:17.727Z,31.50
2018-12-26T11:42:58.428Z,29.25
2018-12-26T11:45:38.918Z,32.42
2018-12-26T11:48:19.889Z,29.25
2018-12-26T11:51:00.990Z,24.07
2018-12-26T11:53:42.217Z,20.92
2018-12-26T11:56:23.214Z,27.73
2018-12-26T11:59:03.974Z,27.35
2018-12-26T12:01:45.392Z,22.07
2018-12-26T12:04:25.942Z,26.00
2018-12-26T12:07:06.777Z,20.20
2018-12-26T12:09:47.494Z,23.02
2018-12-26T12:12:27.757Z,24.15
2018-12-26T12:15:08.438Z,25.65
2018-12-26T12:17:49.213Z,27.27
2018-12-26T12:23:20.462Z,29.37
2018-12-26T12:26:02.521Z,32.13
2018-12-26T12:31:29.442Z,27.80
2018-12-26T12:36:56.242Z,31.05
2018-12-26T12:39:37.451Z,37.15
2018-12-26T12:42:18.668Z,30.48
2018-12-26T12:44:59.226Z,28.38
2018-12-26T12:47:39.981Z,29.95
2018-12-26T12:50:20.546Z,30.68
2018-12-26T12:53:01.321Z,27.58
2018-12-26T12:55:42.674Z,30.82
2018-12-26T12:58:23.357Z,29.48
2018-12-26T13:01:04.205Z,29.48
2018-12-26T13:03:46.612Z,31.33
2018-12-26T13:06:27.389Z,32.35
2018-12-26T13:09:07.893Z,34.25
2018-12-26T13:11:48.758Z,33.83
2018-12-26T13:14:29.333Z,37.67
2018-12-26T13:17:10.653Z,31.73
2018-12-26T13:19:51.950Z,33.67
2018-12-26T13:22:32.713Z,34.15
2018-12-26T13:25:13.837Z,34.50
2018-12-26T13:27:54.797Z,34.45
2018-12-26T13:30:35.362Z,35.90
2018-12-26T13:33:16.225Z,37.08
2018-12-26T13:35:57.010Z,38.02
2018-12-26T13:38:37.688Z,38.80
2018-12-26T13:44:08.103Z,38.67
2018-12-26T13:46:50.019Z,40.10
2018-12-26T13:49:30.982Z,37.78
2018-12-26T13:54:57.778Z,39.53
2018-12-26T13:57:38.952Z,37.88
2018-12-26T14:00:19.901Z,38.53
2018-12-26T14:02:59.859Z,39.10
2018-12-26T14:05:42.378Z,37.00
2018-12-26T14:08:23.317Z,41.77
2018-12-26T14:11:04.022Z,38.98
2018-12-26T14:16:33.769Z,48.23
2018-12-26T14:19:14.666Z,41.08
2018-12-26T14:24:43.474Z,47.43
2018-12-26T14:27:29.359Z,52.30
2018-12-26T14:30:11.066Z,46.70
2018-12-26T14:32:48.804Z,46.30
2018-12-26T14:38:15.446Z,43.52
2018-12-26T14:40:56.402Z,47.67
2018-12-26T14:46:22.498Z,45.55
2018-12-26T14:51:48.796Z,48.78
2018-12-26T14:54:30.014Z,48.52
2018-12-26T14:57:11.782Z,48.85
2018-12-26T14:59:52.813Z,46.33
2018-12-26T15:05:18.985Z,44.00
2018-12-26T15:10:48.829Z,46.28
2018-12-26T15:13:30.121Z,47.67
2018-12-26T15:16:10.441Z,52.03
2018-12-26T15:21:41.833Z,51.65
2018-12-26T15:27:11.561Z,52.45
2018-12-26T15:32:41.422Z,46.80
2018-12-26T15:35:22.695Z,55.35
2018-12-26T15:38:03.945Z,57.45
2018-12-26T15:40:45.954Z,53.33
2018-12-26T15:43:15.001Z,59.95
2018-12-26T15:46:03.358Z,54.50
2018-12-26T15:49:06.178Z,59.63
2018-12-26T15:54:38.868Z,59.80
2018-12-26T15:57:42.071Z,55.52
2018-12-26T16:00:18.508Z,60.80
2018-12-26T16:06:02.493Z,57.88
2018-12-26T16:08:51.524Z,59.73
2018-12-26T16:11:39.676Z,69.35
2018-12-26T16:14:28.026Z,57.25
2018-12-26T16:17:15.917Z,62.05
2018-12-26T16:20:04.265Z,64.25
2018-12-26T16:22:52.164Z,61.02
2018-12-26T16:25:40.041Z,51.85
2018-12-26T16:28:28.177Z,58.42
2018-12-26T16:33:54.051Z,54.38
2018-12-26T16:36:34.761Z,53.50
2018-12-26T16:39:15.169Z,52.88
2018-12-26T16:41:55.826Z,54.30
2018-12-26T16:44:36.188Z,47.62
2018-12-26T16:47:16.817Z,61.98
2018-12-26T16:49:57.577Z,50.35
2018-12-26T16:52:38.070Z,56.98
2018-12-26T16:55:18.942Z,61.80
2018-12-26T16:57:59.913Z,56.48
2018-12-26T17:00:40.470Z,57.75
2018-12-26T17:03:21.701Z,57.93
2018-12-26T17:06:02.513Z,59.77
2018-12-26T17:08:43.366Z,60.98
2018-12-26T17:17:09.816Z,68.67
2018-12-26T17:28:34.798Z,65.60
2018-12-26T17:34:03.997Z,59.88
2018-12-26T17:42:30.284Z,62.93
2018-12-26T17:45:11.386Z,61.90
2018-12-26T17:50:42.142Z,67.95
2018-12-26T17:56:11.421Z,69.37
2018-12-26T17:58:51.942Z,66.77
2018-12-26T18:01:33.056Z,60.92
2018-12-26T18:04:13.740Z,64.95
2018-12-26T18:06:54.362Z,59.25
2018-12-26T18:09:35.666Z,61.23
2018-12-26T18:12:16.374Z,63.98
2018-12-26T18:14:57.193Z,55.98
2018-12-26T18:17:40.258Z,60.45
2018-12-26T18:20:21.057Z,67.87
2018-12-26T18:23:02.255Z,63.95
2018-12-26T18:25:43.170Z,66.75
2018-12-26T18:28:24.034Z,69.03
2018-12-26T18:31:05.286Z,70.57
2018-12-26T18:33:46.109Z,75.10
2018-12-26T18:36:27.660Z,67.40
2018-12-26T18:39:08.454Z,67.58
2018-12-26T18:41:49.666Z,82.70
2018-12-26T18:44:30.653Z,74.77
2018-12-26T18:47:11.433Z,85.50
2018-12-26T18:49:52.402Z,85.03
2018-12-26T18:52:33.189Z,79.10
2018-12-26T18:55:14.343Z,73.50
2018-12-26T18:57:55.702Z,67.00
2018-12-26T19:00:35.994Z,69.07
2018-12-26T19:03:16.925Z,73.52
2018-12-26T19:05:57.381Z,69.80
2018-12-26T19:08:38.068Z,69.25
2018-12-26T19:11:19.185Z,68.65
2018-12-26T19:13:59.662Z,72.90
2018-12-26T19:16:40.389Z,68.70
2018-12-26T19:19:21.505Z,74.67
2018-12-26T19:22:06.804Z,71.28
2018-12-26T19:24:47.678Z,81.02
2018-12-26T19:27:28.613Z,66.85
2018-12-26T19:30:09.357Z,70.52
2018-12-26T19:32:50.378Z,72.58
2018-12-26T19:35:30.957Z,72.20
2018-12-26T19:38:11.619Z,70.03
2018-12-26T19:40:52.201Z,67.20
2018-12-26T19:43:33.149Z,62.75
2018-12-26T19:46:13.445Z,64.65
2018-12-26T19:48:54.299Z,63.02
2018-12-26T19:51:34.801Z,79.47
2018-12-26T19:54:15.853Z,63.70
2018-12-26T19:56:56.973Z,67.80
2018-12-26T19:59:38.145Z,68.50
2018-12-26T20:02:18.997Z,73.87
2018-12-26T20:04:59.825Z,70.83
2018-12-26T20:07:40.312Z,73.70
2018-12-26T20:10:21.378Z,61.20
2018-12-26T20:13:02.390Z,63.33
2018-12-26T20:15:42.885Z,63.50
2018-12-26T20:18:23.723Z,67.72
2018-12-26T20:21:04.205Z,63.35
2018-12-26T20:23:44.857Z,61.45
2018-12-26T20:26:25.749Z,63.80
2018-12-26T20:29:06.858Z,59.83
2018-12-26T20:31:48.005Z,73.07
2018-12-26T20:34:30.030Z,67.40
2018-12-26T20:37:10.714Z,66.02
2018-12-26T20:39:51.280Z,62.55
2018-12-26T20:42:31.865Z,60.70
2018-12-26T20:45:13.597Z,61.02
2018-12-26T20:47:54.302Z,68.10
2018-12-26T20:50:35.262Z,64.92
2018-12-26T20:53:15.834Z,60.95
2018-12-26T20:55:57.186Z,60.33
2018-12-26T20:58:37.741Z,57.00
2018-12-26T21:01:19.254Z,50.78
2018-12-26T21:03:59.629Z,46.50
2018-12-26T21:06:40.268Z,51.33
2018-12-26T21:09:21.130Z,46.88
2018-12-26T21:14:49.170Z,49.80
2018-12-26T21:17:29.657Z,52.43
2018-12-26T21:22:57.323Z,53.40
2018-12-26T21:25:38.429Z,53.42
2018-12-26T21:31:03.125Z,51.73
2018-12-26T21:36:29.974Z,51.18
2018-12-26T21:39:10.828Z,57.27
2018-12-26T21:41:52.062Z,52.58
2018-12-26T21:44:35.729Z,49.60
2018-12-26T21:47:17.130Z,50.45
2018-12-26T21:49:58.689Z,52.13
2018-12-26T21:52:39.941Z,50.17
2018-12-26T21:55:20.371Z,49.15
2018-12-26T21:58:00.905Z,47.85
2018-12-26T22:00:41.629Z,51.63
2018-12-26T22:03:23.202Z,49.25
2018-12-26T22:06:04.180Z,51.83
2018-12-26T22:11:26.966Z,55.60
2018-12-26T22:16:56.745Z,56.00
2018-12-26T22:19:37.981Z,50.15
2018-12-26T22:22:18.621Z,48.90
2018-12-26T22:24:59.415Z,48.13
2018-12-26T22:27:39.865Z,47.13
2018-12-26T22:30:20.724Z,40.90
2018-12-26T22:33:02.390Z,48.68
2018-12-26T22:35:43.598Z,43.58
2018-12-26T22:38:24.201Z,48.23
2018-12-26T22:43:52.854Z,42.78
2018-12-26T22:46:33.659Z,45.03
2018-12-26T22:49:15.330Z,53.10
2018-12-26T22:51:56.730Z,49.73
2018-12-26T22:54:37.846Z,49.70
2018-12-26T22:57:19.130Z,59.73
2018-12-26T22:59:59.594Z,56.73
2018-12-26T23:02:40.509Z,48.80
2018-12-26T23:05:20.882Z,61.73
2018-12-26T23:08:02.130Z,59.03
2018-12-26T23:10:42.745Z,55.52
2018-12-26T23:13:23.778Z,47.15
2018-12-26T23:16:04.617Z,43.45
2018-12-26T23:18:45.566Z,47.08
2018-12-26T23:21:26.355Z,50.75
2018-12-26T23:24:07.698Z,52.20
2018-12-26T23:29:41.685Z,47.20
2018-12-26T23:32:22.658Z,46.05
2018-12-26T23:35:03.396Z,44.83
2018-12-26T23:40:34.451Z,44.23
2018-12-26T23:43:15.641Z,43.08
2018-12-26T23:45:56.734Z,44.10
2018-12-26T23:48:37.566Z,40.10
2018-12-26T23:54:08.838Z,39.88
2018-12-26T23:59:33.985Z,35.58
